createdAt,value
2022-12-27T00:00:35.705Z,4.27
2022-12-27T00:03:02.264Z,4.26
2022-12-27T00:05:28.915Z,4.24
2022-12-27T00:07:55.642Z,4.24
2022-12-27T00:10:22.334Z,4.24
2022-12-27T00:12:48.817Z,4.23
2022-12-27T00:15:15.214Z,4.22
2022-12-27T00:17:41.756Z,4.11
2022-12-27T00:20:11.699Z,4.02
2022-12-27T00:22:39.021Z,4.02
2022-12-27T00:25:05.746Z,3.94
2022-12-27T00:27:32.201Z,3.94
2022-12-27T00:29:58.612Z,3.91
2022-12-27T00:32:25.063Z,3.84
2022-12-27T00:34:51.913Z,3.85
2022-12-27T00:37:18.575Z,3.82
2022-12-27T00:39:45.129Z,3.86
2022-12-27T00:42:11.555Z,3.81
2022-12-27T00:44:37.964Z,3.90
2022-12-27T00:47:04.789Z,3.87
2022-12-27T00:49:31.336Z,3.96
2022-12-27T00:51:57.751Z,3.92
2022-12-27T00:54:24.163Z,3.92
2022-12-27T00:56:50.647Z,4.00
2022-12-27T00:59:17.125Z,4.07
2022-12-27T01:01:43.679Z,4.05
2022-12-27T01:04:12.582Z,4.09
2022-12-27T01:06:39.215Z,4.02
2022-12-27T01:09:06.122Z,3.98
2022-12-27T01:11:33.431Z,4.06
2022-12-27T01:14:03.301Z,4.04
2022-12-27T01:16:31.307Z,4.11
2022-12-27T01:18:58.641Z,4.10
2022-12-27T01:21:25.446Z,4.15
2022-12-27T01:23:52.127Z,4.17
2022-12-27T01:26:21.264Z,4.19
2022-12-27T01:28:48.488Z,4.32
2022-12-27T01:31:19.563Z,4.37
2022-12-27T01:33:46.109Z,4.36
2022-12-27T01:36:18.862Z,4.37
2022-12-27T01:38:47.849Z,4.46
2022-12-27T01:41:40.481Z,4.45
2022-12-27T01:44:34.886Z,4.42
2022-12-27T01:47:02.452Z,4.41
2022-12-27T01:49:29.041Z,4.40
2022-12-27T01:51:55.526Z,4.44
2022-12-27T01:54:21.967Z,4.32
2022-12-27T01:56:48.383Z,4.40
2022-12-27T01:59:14.972Z,4.43
2022-12-27T02:01:44.251Z,4.44
2022-12-27T02:04:14.739Z,4.47
2022-12-27T02:06:41.403Z,4.44
2022-12-27T02:09:26.531Z,4.54
2022-12-27T02:11:56.754Z,4.44
2022-12-27T02:14:33.665Z,4.54
2022-12-27T02:17:11.072Z,4.42
2022-12-27T02:19:40.530Z,4.41
2022-12-27T02:23:08.482Z,4.35
2022-12-27T02:26:03.849Z,4.28
2022-12-27T02:28:33.220Z,4.28
2022-12-27T02:31:13.150Z,4.21
2022-12-27T02:33:46.828Z,4.34
2022-12-27T02:36:18.324Z,4.39
2022-12-27T02:38:49.838Z,4.36
2022-12-27T02:41:36.380Z,4.41
2022-12-27T02:44:21.417Z,4.33
2022-12-27T02:47:06.646Z,4.26
2022-12-27T02:49:55.004Z,4.29
2022-12-27T02:53:04.457Z,4.24
2022-12-27T02:56:09.064Z,4.29
2022-12-27T02:59:04.857Z,4.25
2022-12-27T03:02:13.388Z,4.28
2022-12-27T03:04:50.178Z,4.24
2022-12-27T03:07:32.981Z,4.25
2022-12-27T03:10:37.367Z,4.29
2022-12-27T03:13:34.250Z,4.32
2022-12-27T03:16:22.692Z,4.29
2022-12-27T03:19:11.482Z,4.43
2022-12-27T03:22:00.227Z,4.36
2022-12-27T03:24:49.880Z,4.71
2022-12-27T03:27:34.927Z,5.09
2022-12-27T03:30:24.138Z,5.03
2022-12-27T03:33:13.244Z,5.05
2022-12-27T03:36:10.318Z,4.93
2022-12-27T03:38:47.104Z,5.03
2022-12-27T03:41:36.377Z,5.15
2022-12-27T03:44:22.799Z,5.13
2022-12-27T03:46:51.910Z,5.22
2022-12-27T03:49:34.670Z,5.15
2022-12-27T03:52:11.530Z,5.07
2022-12-27T03:54:39.710Z,5.19
2022-12-27T03:57:08.752Z,4.98
2022-12-27T03:59:35.423Z,5.07
2022-12-27T04:02:02.138Z,5.02
2022-12-27T04:04:28.810Z,5.08
2022-12-27T04:06:55.547Z,5.00
2022-12-27T04:09:40.588Z,4.95
2022-12-27T04:12:25.655Z,4.99
2022-12-27T04:15:10.715Z,4.98
2022-12-27T04:17:55.779Z,5.01
2022-12-27T04:20:41.065Z,5.12
2022-12-27T04:23:26.581Z,5.11
2022-12-27T04:26:11.693Z,4.99
2022-12-27T04:28:56.777Z,4.87
2022-12-27T04:31:41.881Z,5.11
2022-12-27T04:34:27.053Z,5.05
2022-12-27T04:36:53.478Z,4.92
2022-12-27T04:39:19.954Z,5.07
2022-12-27T04:42:05.075Z,5.19
2022-12-27T04:44:50.191Z,5.32
2022-12-27T04:47:37.260Z,5.36
2022-12-27T04:50:23.385Z,5.12
2022-12-27T04:53:08.530Z,5.28
2022-12-27T04:55:34.967Z,5.21
2022-12-27T04:58:01.604Z,5.21
2022-12-27T05:00:48.727Z,5.33
2022-12-27T05:03:17.037Z,5.31
2022-12-27T05:05:44.272Z,5.45
2022-12-27T05:08:29.877Z,5.34
2022-12-27T05:11:14.850Z,5.27
2022-12-27T05:13:59.611Z,5.28
2022-12-27T05:16:31.655Z,5.36
2022-12-27T05:18:58.280Z,5.39
2022-12-27T05:21:24.965Z,5.35
2022-12-27T05:24:10.131Z,5.29
2022-12-27T05:26:38.249Z,5.32
2022-12-27T05:29:06.276Z,5.38
2022-12-27T05:31:33.001Z,5.51
2022-12-27T05:33:59.797Z,5.47
2022-12-27T05:36:27.359Z,5.48
2022-12-27T05:38:54.031Z,5.36
2022-12-27T05:41:20.440Z,5.35
2022-12-27T05:43:47.511Z,5.28
2022-12-27T05:46:16.206Z,5.21
2022-12-27T05:48:43.082Z,5.21
2022-12-27T05:51:12.583Z,5.27
2022-12-27T05:53:39.210Z,5.21
2022-12-27T05:56:05.728Z,5.23
2022-12-27T05:58:32.416Z,5.08
2022-12-27T06:00:59.528Z,5.16
2022-12-27T06:03:26.135Z,5.35
2022-12-27T06:05:52.871Z,5.38
2022-12-27T06:08:19.316Z,5.34
2022-12-27T06:10:45.739Z,5.34
2022-12-27T06:13:12.303Z,5.34
2022-12-27T06:15:38.791Z,5.29
2022-12-27T06:18:06.669Z,5.25
2022-12-27T06:20:33.132Z,5.24
2022-12-27T06:23:00.190Z,5.38
2022-12-27T06:25:26.605Z,5.43
2022-12-27T06:27:52.986Z,5.46
2022-12-27T06:30:19.657Z,5.61
2022-12-27T06:32:46.163Z,5.61
2022-12-27T06:35:12.684Z,5.55
2022-12-27T06:37:39.360Z,5.48
2022-12-27T06:40:06.463Z,5.53
2022-12-27T06:42:33.005Z,5.33
2022-12-27T06:44:59.468Z,5.17
2022-12-27T06:47:26.009Z,5.29
2022-12-27T06:49:52.462Z,5.42
2022-12-27T06:52:18.956Z,5.39
2022-12-27T06:54:45.381Z,5.17
2022-12-27T06:57:11.780Z,5.12
2022-12-27T06:59:38.256Z,5.03
2022-12-27T07:02:04.782Z,4.95
2022-12-27T07:04:31.323Z,4.95
2022-12-27T07:06:57.767Z,4.96
2022-12-27T07:09:24.277Z,4.90
2022-12-27T07:11:50.675Z,4.94
2022-12-27T07:14:17.108Z,4.97
2022-12-27T07:16:43.523Z,4.95
2022-12-27T07:19:09.969Z,4.95
2022-12-27T07:21:36.586Z,4.93
2022-12-27T07:24:03.056Z,4.94
2022-12-27T07:26:30.595Z,4.99
2022-12-27T07:28:59.190Z,5.07
2022-12-27T07:31:29.602Z,4.95
2022-12-27T07:33:57.013Z,4.84
2022-12-27T07:36:26.245Z,4.77
2022-12-27T07:38:53.138Z,4.82
2022-12-27T07:41:19.687Z,4.73
2022-12-27T07:43:46.204Z,4.78
2022-12-27T07:46:20.855Z,4.74
2022-12-27T07:48:47.909Z,4.75
2022-12-27T07:51:15.991Z,4.76
2022-12-27T07:53:43.471Z,4.71
2022-12-27T07:56:25.880Z,4.74
2022-12-27T07:58:53.600Z,4.69
2022-12-27T08:01:24.920Z,4.71
2022-12-27T08:03:51.534Z,4.74
2022-12-27T08:06:25.352Z,4.85
2022-12-27T08:08:52.900Z,4.90
2022-12-27T08:11:19.659Z,4.88
2022-12-27T08:13:46.617Z,4.88
2022-12-27T08:16:22.935Z,4.90
2022-12-27T08:18:49.422Z,4.91
2022-12-27T08:21:16.138Z,4.79
2022-12-27T08:23:42.742Z,4.82
2022-12-27T08:26:09.462Z,4.85
2022-12-27T08:28:35.937Z,4.91
2022-12-27T08:31:06.238Z,4.94
2022-12-27T08:33:32.683Z,5.14
2022-12-27T08:36:15.748Z,5.20
2022-12-27T08:38:53.599Z,5.17
2022-12-27T08:41:21.210Z,5.22
2022-12-27T08:43:47.996Z,5.32
2022-12-27T08:46:14.448Z,5.31
2022-12-27T08:48:41.173Z,5.43
2022-12-27T08:51:12.957Z,5.52
2022-12-27T08:53:41.115Z,5.62
2022-12-27T08:56:07.709Z,5.58
2022-12-27T08:58:34.270Z,5.71
2022-12-27T09:01:08.210Z,5.65
2022-12-27T09:03:34.864Z,5.73
2022-12-27T09:06:16.531Z,5.69
2022-12-27T09:08:44.427Z,5.76
2022-12-27T09:11:13.813Z,5.82
2022-12-27T09:13:40.468Z,5.94
2022-12-27T09:16:08.471Z,5.98
2022-12-27T09:18:34.889Z,5.96
2022-12-27T09:21:09.984Z,6.01
2022-12-27T09:23:36.490Z,6.05
2022-12-27T09:26:07.689Z,5.95
2022-12-27T09:28:35.010Z,5.93
2022-12-27T09:31:01.768Z,5.90
2022-12-27T09:33:28.942Z,5.95
2022-12-27T09:36:10.367Z,6.22
2022-12-27T09:38:37.823Z,6.30
2022-12-27T09:42:12.187Z,6.42
2022-12-27T09:44:25.393Z,6.56
2022-12-27T09:47:12.180Z,6.68
2022-12-27T09:49:46.194Z,6.68
2022-12-27T09:52:18.515Z,6.69
2022-12-27T09:54:44.833Z,6.59
2022-12-27T09:57:23.030Z,6.53
2022-12-27T09:59:51.480Z,6.52
2022-12-27T10:02:24.132Z,6.61
2022-12-27T10:08:05.733Z,6.61
2022-12-27T10:10:46.299Z,6.71
2022-12-27T10:13:23.594Z,6.67
2022-12-27T10:16:23.476Z,6.67
2022-12-27T10:19:08.896Z,6.77
2022-12-27T10:21:39.004Z,6.92
2022-12-27T10:24:26.203Z,6.92
2022-12-27T10:26:55.068Z,7.03
2022-12-27T10:29:29.628Z,6.95
2022-12-27T10:31:58.072Z,6.99
2022-12-27T10:34:24.820Z,6.94
2022-12-27T10:36:52.959Z,7.01
2022-12-27T10:39:21.898Z,7.11
2022-12-27T10:42:02.664Z,7.17
2022-12-27T10:44:29.510Z,7.24
2022-12-27T10:46:56.545Z,7.14
2022-12-27T10:49:31.156Z,7.00
2022-12-27T10:52:10.220Z,6.96
2022-12-27T10:54:51.543Z,7.01
2022-12-27T10:57:23.854Z,6.99
2022-12-27T11:00:18.062Z,7.07
2022-12-27T11:02:54.710Z,7.12
2022-12-27T11:05:32.452Z,7.11
2022-12-27T11:08:01.323Z,7.19
2022-12-27T11:10:31.373Z,7.28
2022-12-27T11:13:06.022Z,7.32
2022-12-27T11:15:35.605Z,7.33
2022-12-27T11:18:09.598Z,7.29
2022-12-27T11:20:41.155Z,7.23
2022-12-27T11:23:10.563Z,7.33
2022-12-27T11:25:46.945Z,7.44
2022-12-27T11:28:39.575Z,7.44
2022-12-27T11:31:12.105Z,7.48
2022-12-27T11:33:55.514Z,7.57
2022-12-27T11:36:32.413Z,7.58
2022-12-27T11:39:00.713Z,7.63
2022-12-27T11:41:37.477Z,7.76
2022-12-27T11:44:12.887Z,7.67
2022-12-27T11:47:17.039Z,7.57
2022-12-27T11:49:52.173Z,7.63
2022-12-27T11:52:35.008Z,7.68
2022-12-27T11:55:22.308Z,7.68
2022-12-27T11:58:08.565Z,7.71
2022-12-27T12:00:52.067Z,7.60
2022-12-27T12:03:48.781Z,7.56
2022-12-27T12:06:38.683Z,7.47
2022-12-27T12:09:18.526Z,7.27
2022-12-27T12:11:55.514Z,7.26
2022-12-27T12:14:24.871Z,7.19
2022-12-27T12:16:57.452Z,7.26
2022-12-27T12:19:48.197Z,7.28
2022-12-27T12:22:27.694Z,7.28
2022-12-27T12:25:22.471Z,7.44
2022-12-27T12:28:01.111Z,7.47
2022-12-27T12:30:33.753Z,7.38
2022-12-27T12:33:42.701Z,7.34
2022-12-27T12:36:34.510Z,7.38
2022-12-27T12:39:23.731Z,7.39
2022-12-27T12:42:02.359Z,7.46
2022-12-27T12:45:19.831Z,7.59
2022-12-27T12:48:12.463Z,7.66
2022-12-27T12:50:50.620Z,7.73
2022-12-27T12:53:26.722Z,7.76
2022-12-27T12:56:18.348Z,7.74
2022-12-27T12:59:17.314Z,7.68
2022-12-27T13:01:52.804Z,7.71
2022-12-27T13:05:00.536Z,7.77
2022-12-27T13:07:48.268Z,7.77
2022-12-27T13:10:27.705Z,7.79
2022-12-27T13:13:00.551Z,7.77
2022-12-27T13:15:41.742Z,7.80
2022-12-27T13:18:36.975Z,7.81
2022-12-27T13:21:42.380Z,7.75
2022-12-27T13:24:14.669Z,7.81
2022-12-27T13:26:56.063Z,7.79
2022-12-27T13:29:42.221Z,7.77
2022-12-27T13:32:50.338Z,7.71
2022-12-27T13:35:30.764Z,7.75
2022-12-27T13:38:26.594Z,7.77
2022-12-27T13:41:29.933Z,7.72
2022-12-27T13:44:10.095Z,7.67
2022-12-27T13:46:58.528Z,7.71
2022-12-27T13:50:02.851Z,7.57
2022-12-27T13:53:17.522Z,7.56
2022-12-27T13:55:49.683Z,7.44
2022-12-27T13:58:46.520Z,7.44
2022-12-27T14:01:28.179Z,7.37
2022-12-27T14:04:23.705Z,7.32
2022-12-27T14:07:02.150Z,7.32
2022-12-27T14:09:48.208Z,7.34
2022-12-27T14:12:33.990Z,7.34
2022-12-27T14:15:03.587Z,7.38
2022-12-27T14:17:42.293Z,7.25
2022-12-27T14:20:38.984Z,7.22
2022-12-27T14:23:24.398Z,7.20
2022-12-27T14:25:56.717Z,7.15
2022-12-27T14:28:59.503Z,7.10
2022-12-27T14:32:04.341Z,6.98
2022-12-27T14:34:59.321Z,6.94
2022-12-27T14:37:36.488Z,6.95
2022-12-27T14:40:12.254Z,6.99
2022-12-27T14:43:23.255Z,6.98
2022-12-27T14:46:17.398Z,7.00
2022-12-27T14:49:21.607Z,6.99
2022-12-27T14:52:15.895Z,6.89
2022-12-27T14:54:57.488Z,6.93
2022-12-27T14:57:42.535Z,6.91
2022-12-27T15:00:21.542Z,6.91
2022-12-27T15:03:07.886Z,6.85
2022-12-27T15:05:46.529Z,6.71
2022-12-27T15:08:21.853Z,6.61
2022-12-27T15:10:57.376Z,6.56
2022-12-27T15:13:46.728Z,6.44
2022-12-27T15:16:32.822Z,6.42
2022-12-27T15:19:17.424Z,6.35
2022-12-27T15:21:52.755Z,6.23
2022-12-27T15:24:28.090Z,6.10
2022-12-27T15:27:34.132Z,6.00
2022-12-27T15:30:25.313Z,5.92
2022-12-27T15:33:01.504Z,5.90
2022-12-27T15:35:50.304Z,5.87
2022-12-27T15:38:47.167Z,5.72
2022-12-27T15:41:22.224Z,5.66
2022-12-27T15:44:07.528Z,5.55
2022-12-27T15:46:41.289Z,5.53
2022-12-27T15:49:13.754Z,5.51
2022-12-27T15:51:58.614Z,5.46
2022-12-27T15:55:10.382Z,5.48
2022-12-27T15:58:05.729Z,5.34
2022-12-27T16:00:34.268Z,5.31
2022-12-27T16:03:34.766Z,5.29
2022-12-27T16:06:02.108Z,5.28
2022-12-27T16:08:37.689Z,5.29
2022-12-27T16:11:12.258Z,5.36
2022-12-27T16:13:44.576Z,5.37
2022-12-27T16:16:37.168Z,5.33
2022-12-27T16:19:10.536Z,5.32
2022-12-27T16:21:43.157Z,5.34
2022-12-27T16:24:19.952Z,5.37
2022-12-27T16:26:56.940Z,5.42
2022-12-27T16:29:30.103Z,5.49
2022-12-27T16:32:13.858Z,5.45
2022-12-27T16:34:40.529Z,5.43
2022-12-27T16:37:22.532Z,5.40
2022-12-27T16:39:58.303Z,5.37
2022-12-27T16:42:34.229Z,5.27
2022-12-27T16:45:25.599Z,5.20
2022-12-27T16:47:58.015Z,5.27
2022-12-27T16:50:42.790Z,5.39
2022-12-27T16:53:36.372Z,5.47
2022-12-27T16:56:16.474Z,5.52
2022-12-27T16:58:43.511Z,5.57
2022-12-27T17:01:25.396Z,5.57
2022-12-27T17:03:57.232Z,5.32
2022-12-27T17:06:33.276Z,5.32
2022-12-27T17:09:09.237Z,5.25
2022-12-27T17:11:41.873Z,5.25
2022-12-27T17:14:30.060Z,5.23
2022-12-27T17:16:58.717Z,5.28
2022-12-27T17:19:40.433Z,5.30
2022-12-27T17:22:08.336Z,5.27
2022-12-27T17:24:34.948Z,5.21
2022-12-27T17:27:12.059Z,5.16
2022-12-27T17:30:06.773Z,5.13
2022-12-27T17:33:00.473Z,5.07
2022-12-27T17:35:29.301Z,5.14
2022-12-27T17:38:07.301Z,5.15
2022-12-27T17:41:15.807Z,5.18
2022-12-27T17:44:20.274Z,5.24
2022-12-27T17:46:50.121Z,5.17
2022-12-27T17:49:16.955Z,5.22
2022-12-27T17:52:05.399Z,5.30
2022-12-27T17:54:50.421Z,5.29
2022-12-27T17:57:36.941Z,5.36
2022-12-27T18:00:06.350Z,5.46
2022-12-27T18:02:35.536Z,5.47
2022-12-27T18:05:05.265Z,5.36
2022-12-27T18:07:32.718Z,5.30
2022-12-27T18:10:21.919Z,5.38
2022-12-27T18:12:52.157Z,5.34
2022-12-27T18:15:22.247Z,5.20
2022-12-27T18:17:51.598Z,5.12
2022-12-27T18:20:30.326Z,5.10
2022-12-27T18:23:02.848Z,5.03
2022-12-27T18:25:31.711Z,5.01
2022-12-27T18:28:02.916Z,4.93
2022-12-27T18:30:33.028Z,4.95
2022-12-27T18:33:00.755Z,4.94
2022-12-27T18:35:27.623Z,4.98
2022-12-27T18:37:54.516Z,4.94
2022-12-27T18:40:23.385Z,4.86
2022-12-27T18:42:51.478Z,4.86
2022-12-27T18:45:22.440Z,4.94
2022-12-27T18:47:51.148Z,4.86
2022-12-27T18:50:18.980Z,4.91
2022-12-27T18:52:49.827Z,4.97
2022-12-27T18:55:26.689Z,4.97
2022-12-27T18:58:20.464Z,5.02
2022-12-27T19:00:58.963Z,5.01
2022-12-27T19:03:27.241Z,4.96
2022-12-27T19:06:10.913Z,4.88
2022-12-27T19:08:39.975Z,4.89
2022-12-27T19:11:07.072Z,4.86
2022-12-27T19:13:40.541Z,4.89
2022-12-27T19:16:07.356Z,4.83
2022-12-27T19:18:35.608Z,4.79
2022-12-27T19:21:04.597Z,4.80
2022-12-27T19:23:36.801Z,4.75
2022-12-27T19:26:16.954Z,4.76
2022-12-27T19:28:45.007Z,4.78
2022-12-27T19:31:19.273Z,4.68
2022-12-27T19:33:50.111Z,4.69
2022-12-27T19:36:16.574Z,4.67
2022-12-27T19:38:47.767Z,4.63
2022-12-27T19:41:14.891Z,4.64
2022-12-27T19:43:45.785Z,4.72
2022-12-27T19:46:13.453Z,4.70
2022-12-27T19:48:39.941Z,4.72
2022-12-27T19:51:07.373Z,4.74
2022-12-27T19:53:38.883Z,4.71
2022-12-27T19:56:07.655Z,4.77
2022-12-27T19:58:34.773Z,4.78
2022-12-27T20:01:01.304Z,4.86
2022-12-27T20:03:27.869Z,4.99
2022-12-27T20:06:14.132Z,5.21
2022-12-27T20:08:44.322Z,5.19
2022-12-27T20:11:16.428Z,5.42
2022-12-27T20:13:42.827Z,5.47
2022-12-27T20:16:12.103Z,5.54
2022-12-27T20:18:39.567Z,5.60
2022-12-27T20:21:07.306Z,5.73
2022-12-27T20:23:33.703Z,5.77
2022-12-27T20:26:00.151Z,5.90
2022-12-27T20:28:26.564Z,5.95
2022-12-27T20:30:52.982Z,5.94
2022-12-27T20:33:19.387Z,6.04
2022-12-27T20:35:54.985Z,6.11
2022-12-27T20:38:21.364Z,6.18
2022-12-27T20:40:47.845Z,6.21
2022-12-27T20:43:14.437Z,6.28
2022-12-27T20:45:40.853Z,6.26
2022-12-27T20:48:09.206Z,6.38
2022-12-27T20:50:39.614Z,6.42
2022-12-27T20:53:06.033Z,6.52
2022-12-27T20:55:34.249Z,6.64
2022-12-27T20:58:01.412Z,6.75
2022-12-27T21:00:27.919Z,6.85
2022-12-27T21:02:54.432Z,6.97
2022-12-27T21:05:21.168Z,7.02
2022-12-27T21:07:47.606Z,7.12
2022-12-27T21:10:14.155Z,7.15
2022-12-27T21:12:40.790Z,7.18
2022-12-27T21:15:10.767Z,7.07
2022-12-27T21:17:37.284Z,7.09
2022-12-27T21:20:06.242Z,7.15
2022-12-27T21:22:32.618Z,7.17
2022-12-27T21:24:59.164Z,7.15
2022-12-27T21:27:25.606Z,7.18
2022-12-27T21:29:52.139Z,7.26
2022-12-27T21:32:18.612Z,7.27
2022-12-27T21:34:45.040Z,7.27
2022-12-27T21:37:13.503Z,7.23
2022-12-27T21:39:40.274Z,7.31
2022-12-27T21:42:06.749Z,7.32
2022-12-27T21:44:35.395Z,7.32
2022-12-27T21:47:01.855Z,7.18
2022-12-27T21:49:28.307Z,7.16
2022-12-27T21:51:55.658Z,7.17
2022-12-27T21:54:22.159Z,7.13
2022-12-27T21:56:48.842Z,7.08
2022-12-27T21:59:15.463Z,6.98
2022-12-27T22:01:51.370Z,6.95
2022-12-27T22:04:22.107Z,6.84
2022-12-27T22:06:48.615Z,6.94
2022-12-27T22:09:15.129Z,6.88
2022-12-27T22:11:41.640Z,6.83
2022-12-27T22:14:08.109Z,6.76
2022-12-27T22:16:36.408Z,6.85
2022-12-27T22:19:05.764Z,6.84
2022-12-27T22:21:33.607Z,6.74
2022-12-27T22:24:01.212Z,6.61
2022-12-27T22:26:34.381Z,6.65
2022-12-27T22:29:02.147Z,6.63
2022-12-27T22:31:30.586Z,6.62
2022-12-27T22:33:57.224Z,6.71
2022-12-27T22:36:24.691Z,6.61
2022-12-27T22:38:51.273Z,6.57
2022-12-27T22:41:22.659Z,6.51
2022-12-27T22:43:54.364Z,6.51
2022-12-27T22:46:20.907Z,6.56
2022-12-27T22:48:55.276Z,6.47
2022-12-27T22:51:34.075Z,6.44
2022-12-27T22:54:01.320Z,6.42
2022-12-27T22:56:29.922Z,6.44
2022-12-27T22:58:56.547Z,6.49
2022-12-27T23:01:28.858Z,6.47
2022-12-27T23:03:56.885Z,6.43
2022-12-27T23:06:23.944Z,6.41
2022-12-27T23:08:50.741Z,6.41
2022-12-27T23:11:18.920Z,6.40
2022-12-27T23:13:45.813Z,6.53
2022-12-27T23:16:12.578Z,6.50
2022-12-27T23:18:41.896Z,6.50
2022-12-27T23:21:20.385Z,6.46
2022-12-27T23:23:49.402Z,6.46
2022-12-27T23:26:17.662Z,6.49
2022-12-27T23:28:45.253Z,6.45
2022-12-27T23:31:12.495Z,6.44
2022-12-27T23:33:40.192Z,6.50
2022-12-27T23:36:07.095Z,6.48
2022-12-27T23:38:33.752Z,6.45
2022-12-27T23:41:03.020Z,6.36
2022-12-27T23:43:54.914Z,6.42
2022-12-27T23:46:23.835Z,6.34
2022-12-27T23:48:50.763Z,6.30
2022-12-27T23:51:17.271Z,6.26
2022-12-27T23:53:43.819Z,6.31
2022-12-27T23:56:14.632Z,6.36
2022-12-27T23:58:41.382Z,6.29
